sensor_id;sensor_type;location;lat;lon;timestamp;P1;durP1;ratioP1;P2;durP2;ratioP2
65373;SDS011;52070;53.760;9.678;2023-02-28T00:00:00;14.57;;;6.75;;
65373;SDS011;52070;53.760;9.678;2023-02-28T00:02:33;13.50;;;6.85;;
65373;SDS011;52070;53.760;9.678;2023-02-28T00:05:00;14.80;;;6.85;;
65373;SDS011;52070;53.760;9.678;2023-02-28T00:07:28;16.73;;;8.02;;
65373;SDS011;52070;53.760;9.678;2023-02-28T00:09:55;15.68;;;6.90;;
65373;SDS011;52070;53.760;9.678;2023-02-28T00:12:24;12.20;;;6.80;;
65373;SDS011;52070;53.760;9.678;2023-02-28T00:14:51;12.13;;;5.93;;
65373;SDS011;52070;53.760;9.678;2023-02-28T00:17:18;12.55;;;6.22;;
65373;SDS011;52070;53.760;9.678;2023-02-28T00:19:46;18.08;;;6.20;;
65373;SDS011;52070;53.760;9.678;2023-02-28T00:22:14;12.90;;;5.85;;
65373;SDS011;52070;53.760;9.678;2023-02-28T00:24:42;14.98;;;5.90;;
65373;SDS011;52070;53.760;9.678;2023-02-28T00:27:09;15.05;;;6.18;;
65373;SDS011;52070;53.760;9.678;2023-02-28T00:29:38;15.73;;;6.35;;
65373;SDS011;52070;53.760;9.678;2023-02-28T00:32:05;13.82;;;6.38;;
65373;SDS011;52070;53.760;9.678;2023-02-28T00:34:32;11.82;;;5.85;;
65373;SDS011;52070;53.760;9.678;2023-02-28T00:37:03;10.73;;;5.78;;
65373;SDS011;52070;53.760;9.678;2023-02-28T00:39:33;11.15;;;5.55;;
65373;SDS011;52070;53.760;9.678;2023-02-28T00:42:00;14.20;;;5.70;;
65373;SDS011;52070;53.760;9.678;2023-02-28T00:44:28;13.85;;;5.95;;
65373;SDS011;52070;53.760;9.678;2023-02-28T00:46:56;11.65;;;5.97;;
65373;SDS011;52070;53.760;9.678;2023-02-28T00:49:23;12.98;;;5.80;;
65373;SDS011;52070;53.760;9.678;2023-02-28T00:51:51;12.05;;;6.10;;
65373;SDS011;52070;53.760;9.678;2023-02-28T00:54:18;13.40;;;5.80;;
65373;SDS011;52070;53.760;9.678;2023-02-28T00:56:45;17.20;;;6.18;;
65373;SDS011;52070;53.760;9.678;2023-02-28T00:59:13;13.55;;;6.25;;
65373;SDS011;52070;53.760;9.678;2023-02-28T01:01:40;10.13;;;5.63;;
65373;SDS011;52070;53.760;9.678;2023-02-28T01:04:09;10.07;;;5.68;;
65373;SDS011;52070;53.760;9.678;2023-02-28T01:06:36;10.98;;;5.20;;
65373;SDS011;52070;53.760;9.678;2023-02-28T01:09:03;11.23;;;5.30;;
65373;SDS011;52070;53.760;9.678;2023-02-28T01:11:32;11.93;;;5.38;;
65373;SDS011;52070;53.760;9.678;2023-02-28T01:14:00;13.27;;;5.70;;
65373;SDS011;52070;53.760;9.678;2023-02-28T01:16:28;12.00;;;5.45;;
65373;SDS011;52070;53.760;9.678;2023-02-28T01:18:55;12.48;;;5.13;;
65373;SDS011;52070;53.760;9.678;2023-02-28T01:21:23;11.05;;;5.50;;
65373;SDS011;52070;53.760;9.678;2023-02-28T01:23:50;13.23;;;5.07;;
65373;SDS011;52070;53.760;9.678;2023-02-28T01:26:18;9.95;;;4.85;;
65373;SDS011;52070;53.760;9.678;2023-02-28T01:28:47;13.25;;;4.45;;
65373;SDS011;52070;53.760;9.678;2023-02-28T01:31:14;9.13;;;4.22;;
65373;SDS011;52070;53.760;9.678;2023-02-28T01:33:41;9.05;;;4.78;;
65373;SDS011;52070;53.760;9.678;2023-02-28T01:36:09;8.38;;;4.25;;
65373;SDS011;52070;53.760;9.678;2023-02-28T01:38:40;6.63;;;3.65;;
65373;SDS011;52070;53.760;9.678;2023-02-28T01:41:07;10.52;;;4.45;;
65373;SDS011;52070;53.760;9.678;2023-02-28T01:46:22;9.35;;;4.72;;
65373;SDS011;52070;53.760;9.678;2023-02-28T01:48:50;15.23;;;5.32;;
65373;SDS011;52070;53.760;9.678;2023-02-28T01:51:20;15.52;;;5.45;;
65373;SDS011;52070;53.760;9.678;2023-02-28T01:53:52;9.32;;;4.68;;
65373;SDS011;52070;53.760;9.678;2023-02-28T01:56:23;14.73;;;5.80;;
65373;SDS011;52070;53.760;9.678;2023-02-28T01:58:53;12.50;;;4.68;;
65373;SDS011;52070;53.760;9.678;2023-02-28T02:01:21;14.35;;;4.90;;
65373;SDS011;52070;53.760;9.678;2023-02-28T02:03:50;15.82;;;5.00;;
65373;SDS011;52070;53.760;9.678;2023-02-28T02:08:47;7.82;;;4.63;;
65373;SDS011;52070;53.760;9.678;2023-02-28T02:11:16;8.27;;;4.57;;
65373;SDS011;52070;53.760;9.678;2023-02-28T02:13:52;14.57;;;5.20;;
65373;SDS011;52070;53.760;9.678;2023-02-28T02:16:33;13.43;;;5.00;;
65373;SDS011;52070;53.760;9.678;2023-02-28T02:19:09;10.45;;;4.82;;
65373;SDS011;52070;53.760;9.678;2023-02-28T02:22:20;13.55;;;4.78;;
65373;SDS011;52070;53.760;9.678;2023-02-28T02:25:04;10.55;;;4.63;;
65373;SDS011;52070;53.760;9.678;2023-02-28T02:27:56;11.60;;;5.05;;
65373;SDS011;52070;53.760;9.678;2023-02-28T02:30:59;12.10;;;4.72;;
65373;SDS011;52070;53.760;9.678;2023-02-28T02:33:45;12.30;;;4.78;;
65373;SDS011;52070;53.760;9.678;2023-02-28T02:36:45;12.18;;;5.10;;
65373;SDS011;52070;53.760;9.678;2023-02-28T02:39:16;10.85;;;4.68;;
65373;SDS011;52070;53.760;9.678;2023-02-28T02:41:50;11.43;;;5.63;;
65373;SDS011;52070;53.760;9.678;2023-02-28T02:44:20;8.52;;;4.55;;
65373;SDS011;52070;53.760;9.678;2023-02-28T02:46:50;11.55;;;4.80;;
65373;SDS011;52070;53.760;9.678;2023-02-28T02:49:21;9.38;;;4.28;;
65373;SDS011;52070;53.760;9.678;2023-02-28T02:51:52;14.30;;;4.88;;
65373;SDS011;52070;53.760;9.678;2023-02-28T02:54:22;9.07;;;4.20;;
65373;SDS011;52070;53.760;9.678;2023-02-28T02:56:54;8.95;;;3.92;;
65373;SDS011;52070;53.760;9.678;2023-02-28T02:59:24;13.25;;;4.40;;
65373;SDS011;52070;53.760;9.678;2023-02-28T03:01:54;6.27;;;3.53;;
65373;SDS011;52070;53.760;9.678;2023-02-28T03:04:26;6.82;;;3.35;;
65373;SDS011;52070;53.760;9.678;2023-02-28T03:06:57;7.45;;;3.30;;
65373;SDS011;52070;53.760;9.678;2023-02-28T03:09:24;9.65;;;3.45;;
65373;SDS011;52070;53.760;9.678;2023-02-28T03:11:53;5.60;;;3.15;;
65373;SDS011;52070;53.760;9.678;2023-02-28T03:14:25;13.03;;;3.90;;
65373;SDS011;52070;53.760;9.678;2023-02-28T03:17:12;11.50;;;3.35;;
65373;SDS011;52070;53.760;9.678;2023-02-28T03:19:56;10.27;;;2.90;;
65373;SDS011;52070;53.760;9.678;2023-02-28T03:22:35;7.30;;;2.83;;
65373;SDS011;52070;53.760;9.678;2023-02-28T03:25:19;14.07;;;3.70;;
65373;SDS011;52070;53.760;9.678;2023-02-28T03:27:55;6.82;;;3.40;;
65373;SDS011;52070;53.760;9.678;2023-02-28T03:30:33;9.00;;;4.00;;
65373;SDS011;52070;53.760;9.678;2023-02-28T03:33:06;10.27;;;3.80;;
65373;SDS011;52070;53.760;9.678;2023-02-28T03:35:40;6.20;;;3.50;;
65373;SDS011;52070;53.760;9.678;2023-02-28T03:38:13;9.05;;;4.35;;
65373;SDS011;52070;53.760;9.678;2023-02-28T03:40:45;9.30;;;3.95;;
65373;SDS011;52070;53.760;9.678;2023-02-28T03:43:18;6.82;;;3.47;;
65373;SDS011;52070;53.760;9.678;2023-02-28T03:45:50;9.20;;;3.35;;
65373;SDS011;52070;53.760;9.678;2023-02-28T03:48:19;8.05;;;3.75;;
65373;SDS011;52070;53.760;9.678;2023-02-28T03:50:53;9.07;;;3.53;;
65373;SDS011;52070;53.760;9.678;2023-02-28T03:53:22;9.35;;;3.67;;
65373;SDS011;52070;53.760;9.678;2023-02-28T03:55:55;12.32;;;3.90;;
65373;SDS011;52070;53.760;9.678;2023-02-28T03:58:27;7.70;;;3.65;;
65373;SDS011;52070;53.760;9.678;2023-02-28T04:00:59;9.40;;;3.60;;
65373;SDS011;52070;53.760;9.678;2023-02-28T04:03:33;7.32;;;3.30;;
65373;SDS011;52070;53.760;9.678;2023-02-28T04:06:03;7.85;;;3.35;;
65373;SDS011;52070;53.760;9.678;2023-02-28T04:08:32;6.22;;;3.30;;
65373;SDS011;52070;53.760;9.678;2023-02-28T04:11:00;9.35;;;3.78;;
65373;SDS011;52070;53.760;9.678;2023-02-28T04:13:30;10.63;;;3.90;;
65373;SDS011;52070;53.760;9.678;2023-02-28T04:15:57;9.18;;;3.55;;
65373;SDS011;52070;53.760;9.678;2023-02-28T04:18:23;7.97;;;3.42;;
65373;SDS011;52070;53.760;9.678;2023-02-28T04:20:50;6.63;;;3.53;;
65373;SDS011;52070;53.760;9.678;2023-02-28T04:23:19;7.05;;;3.42;;
65373;SDS011;52070;53.760;9.678;2023-02-28T04:25:46;7.95;;;3.38;;
65373;SDS011;52070;53.760;9.678;2023-02-28T04:28:13;8.75;;;3.65;;
65373;SDS011;52070;53.760;9.678;2023-02-28T04:30:39;10.98;;;4.63;;
65373;SDS011;52070;53.760;9.678;2023-02-28T04:33:06;9.27;;;3.97;;
65373;SDS011;52070;53.760;9.678;2023-02-28T04:35:33;6.10;;;3.47;;
65373;SDS011;52070;53.760;9.678;2023-02-28T04:38:00;6.88;;;3.83;;
65373;SDS011;52070;53.760;9.678;2023-02-28T04:40:29;9.48;;;4.25;;
65373;SDS011;52070;53.760;9.678;2023-02-28T04:42:56;10.80;;;4.00;;
65373;SDS011;52070;53.760;9.678;2023-02-28T04:45:23;10.90;;;3.83;;
65373;SDS011;52070;53.760;9.678;2023-02-28T04:47:49;10.52;;;4.10;;
65373;SDS011;52070;53.760;9.678;2023-02-28T04:50:16;8.40;;;4.50;;
65373;SDS011;52070;53.760;9.678;2023-02-28T04:52:43;7.22;;;3.63;;
65373;SDS011;52070;53.760;9.678;2023-02-28T04:55:10;8.68;;;4.85;;
65373;SDS011;52070;53.760;9.678;2023-02-28T04:57:39;13.23;;;5.57;;
65373;SDS011;52070;53.760;9.678;2023-02-28T05:00:08;8.98;;;4.68;;
65373;SDS011;52070;53.760;9.678;2023-02-28T05:02:37;10.48;;;4.75;;
65373;SDS011;52070;53.760;9.678;2023-02-28T05:05:05;11.23;;;4.50;;
65373;SDS011;52070;53.760;9.678;2023-02-28T05:07:32;13.77;;;4.97;;
65373;SDS011;52070;53.760;9.678;2023-02-28T05:09:59;9.52;;;4.70;;
65373;SDS011;52070;53.760;9.678;2023-02-28T05:12:26;11.30;;;5.03;;
65373;SDS011;52070;53.760;9.678;2023-02-28T05:14:54;10.32;;;4.90;;
65373;SDS011;52070;53.760;9.678;2023-02-28T05:17:32;11.52;;;4.97;;
65373;SDS011;52070;53.760;9.678;2023-02-28T05:19:59;11.43;;;5.10;;
65373;SDS011;52070;53.760;9.678;2023-02-28T05:22:25;11.48;;;5.07;;
65373;SDS011;52070;53.760;9.678;2023-02-28T05:24:52;9.52;;;4.60;;
65373;SDS011;52070;53.760;9.678;2023-02-28T05:27:19;12.50;;;5.80;;
65373;SDS011;52070;53.760;9.678;2023-02-28T05:29:46;12.93;;;5.50;;
65373;SDS011;52070;53.760;9.678;2023-02-28T05:32:14;13.07;;;5.65;;
65373;SDS011;52070;53.760;9.678;2023-02-28T05:34:41;11.23;;;5.25;;
65373;SDS011;52070;53.760;9.678;2023-02-28T05:37:11;11.70;;;5.47;;
65373;SDS011;52070;53.760;9.678;2023-02-28T05:39:39;13.35;;;6.15;;
65373;SDS011;52070;53.760;9.678;2023-02-28T05:42:06;11.07;;;5.22;;
65373;SDS011;52070;53.760;9.678;2023-02-28T05:44:33;12.05;;;5.25;;
65373;SDS011;52070;53.760;9.678;2023-02-28T05:47:00;13.55;;;5.38;;
65373;SDS011;52070;53.760;9.678;2023-02-28T05:49:28;11.73;;;5.55;;
65373;SDS011;52070;53.760;9.678;2023-02-28T05:51:55;14.02;;;5.60;;
65373;SDS011;52070;53.760;9.678;2023-02-28T05:54:22;10.82;;;5.35;;
65373;SDS011;52070;53.760;9.678;2023-02-28T05:56:49;12.90;;;5.90;;
65373;SDS011;52070;53.760;9.678;2023-02-28T05:59:16;11.50;;;6.05;;
65373;SDS011;52070;53.760;9.678;2023-02-28T06:01:43;14.25;;;5.80;;
65373;SDS011;52070;53.760;9.678;2023-02-28T06:04:14;16.13;;;5.43;;
65373;SDS011;52070;53.760;9.678;2023-02-28T06:06:44;12.33;;;5.83;;
65373;SDS011;52070;53.760;9.678;2023-02-28T06:09:11;9.57;;;5.50;;
65373;SDS011;52070;53.760;9.678;2023-02-28T06:11:38;12.60;;;5.47;;
65373;SDS011;52070;53.760;9.678;2023-02-28T06:14:06;9.88;;;5.50;;
65373;SDS011;52070;53.760;9.678;2023-02-28T06:16:34;14.10;;;5.80;;
65373;SDS011;52070;53.760;9.678;2023-02-28T06:19:03;12.77;;;6.00;;
65373;SDS011;52070;53.760;9.678;2023-02-28T06:21:31;12.43;;;5.57;;
65373;SDS011;52070;53.760;9.678;2023-02-28T06:23:59;17.42;;;5.82;;
65373;SDS011;52070;53.760;9.678;2023-02-28T06:26:26;10.40;;;5.15;;
65373;SDS011;52070;53.760;9.678;2023-02-28T06:28:53;17.08;;;5.57;;
65373;SDS011;52070;53.760;9.678;2023-02-28T06:31:21;11.73;;;5.03;;
65373;SDS011;52070;53.760;9.678;2023-02-28T06:33:48;11.80;;;5.63;;
65373;SDS011;52070;53.760;9.678;2023-02-28T06:36:16;10.98;;;5.22;;
65373;SDS011;52070;53.760;9.678;2023-02-28T06:38:43;9.88;;;4.72;;
65373;SDS011;52070;53.760;9.678;2023-02-28T06:41:12;12.30;;;5.50;;
65373;SDS011;52070;53.760;9.678;2023-02-28T06:43:40;10.52;;;5.25;;
65373;SDS011;52070;53.760;9.678;2023-02-28T06:46:09;10.15;;;4.88;;
65373;SDS011;52070;53.760;9.678;2023-02-28T06:48:38;12.68;;;5.30;;
65373;SDS011;52070;53.760;9.678;2023-02-28T06:51:06;14.85;;;5.10;;
65373;SDS011;52070;53.760;9.678;2023-02-28T06:53:35;12.10;;;5.40;;
65373;SDS011;52070;53.760;9.678;2023-02-28T06:56:06;8.43;;;4.70;;
65373;SDS011;52070;53.760;9.678;2023-02-28T06:58:36;10.40;;;4.57;;
65373;SDS011;52070;53.760;9.678;2023-02-28T07:01:03;6.15;;;4.25;;
65373;SDS011;52070;53.760;9.678;2023-02-28T07:03:31;11.30;;;4.18;;
65373;SDS011;52070;53.760;9.678;2023-02-28T07:05:58;12.13;;;4.68;;
65373;SDS011;52070;53.760;9.678;2023-02-28T07:08:25;9.80;;;4.07;;
65373;SDS011;52070;53.760;9.678;2023-02-28T07:10:53;9.35;;;3.97;;
65373;SDS011;52070;53.760;9.678;2023-02-28T07:13:21;9.07;;;3.15;;
65373;SDS011;52070;53.760;9.678;2023-02-28T07:15:56;6.53;;;3.13;;
65373;SDS011;52070;53.760;9.678;2023-02-28T07:18:25;9.50;;;3.70;;
65373;SDS011;52070;53.760;9.678;2023-02-28T07:20:52;9.30;;;3.80;;
65373;SDS011;52070;53.760;9.678;2023-02-28T07:23:19;8.90;;;3.35;;
65373;SDS011;52070;53.760;9.678;2023-02-28T07:25:46;7.93;;;3.75;;
65373;SDS011;52070;53.760;9.678;2023-02-28T07:28:13;8.80;;;3.55;;
65373;SDS011;52070;53.760;9.678;2023-02-28T07:30:40;11.15;;;3.42;;
65373;SDS011;52070;53.760;9.678;2023-02-28T07:33:09;8.85;;;3.47;;
65373;SDS011;52070;53.760;9.678;2023-02-28T07:35:36;11.75;;;3.03;;
65373;SDS011;52070;53.760;9.678;2023-02-28T07:38:03;8.63;;;3.20;;
65373;SDS011;52070;53.760;9.678;2023-02-28T07:40:30;8.95;;;2.88;;
65373;SDS011;52070;53.760;9.678;2023-02-28T07:42:58;5.22;;;2.70;;
65373;SDS011;52070;53.760;9.678;2023-02-28T07:45:26;9.10;;;2.88;;
65373;SDS011;52070;53.760;9.678;2023-02-28T07:47:54;7.43;;;3.30;;
65373;SDS011;52070;53.760;9.678;2023-02-28T07:50:23;5.70;;;3.20;;
65373;SDS011;52070;53.760;9.678;2023-02-28T07:52:50;9.68;;;2.83;;
65373;SDS011;52070;53.760;9.678;2023-02-28T07:55:17;6.25;;;3.13;;
65373;SDS011;52070;53.760;9.678;2023-02-28T07:57:44;5.82;;;3.10;;
65373;SDS011;52070;53.760;9.678;2023-02-28T08:00:11;11.27;;;3.70;;
65373;SDS011;52070;53.760;9.678;2023-02-28T08:02:39;8.38;;;3.03;;
65373;SDS011;52070;53.760;9.678;2023-02-28T08:05:06;7.00;;;2.40;;
65373;SDS011;52070;53.760;9.678;2023-02-28T08:07:35;12.60;;;2.38;;
65373;SDS011;52070;53.760;9.678;2023-02-28T08:10:02;6.35;;;2.60;;
65373;SDS011;52070;53.760;9.678;2023-02-28T08:12:31;3.38;;;1.85;;
65373;SDS011;52070;53.760;9.678;2023-02-28T08:14:58;4.40;;;1.83;;
65373;SDS011;52070;53.760;9.678;2023-02-28T08:17:25;13.23;;;1.98;;
65373;SDS011;52070;53.760;9.678;2023-02-28T08:19:51;4.38;;;1.92;;
65373;SDS011;52070;53.760;9.678;2023-02-28T08:22:18;5.32;;;2.35;;
65373;SDS011;52070;53.760;9.678;2023-02-28T08:24:47;6.72;;;2.28;;
65373;SDS011;52070;53.760;9.678;2023-02-28T08:27:14;4.47;;;1.80;;
65373;SDS011;52070;53.760;9.678;2023-02-28T08:29:41;3.95;;;2.20;;
65373;SDS011;52070;53.760;9.678;2023-02-28T08:32:08;6.65;;;2.05;;
65373;SDS011;52070;53.760;9.678;2023-02-28T08:34:35;7.20;;;2.40;;
65373;SDS011;52070;53.760;9.678;2023-02-28T08:37:05;5.10;;;2.35;;
65373;SDS011;52070;53.760;9.678;2023-02-28T08:39:33;4.57;;;2.17;;
65373;SDS011;52070;53.760;9.678;2023-02-28T08:42:02;4.63;;;2.00;;
65373;SDS011;52070;53.760;9.678;2023-02-28T08:44:29;4.68;;;1.92;;
65373;SDS011;52070;53.760;9.678;2023-02-28T08:46:57;3.17;;;1.80;;
65373;SDS011;52070;53.760;9.678;2023-02-28T08:49:24;6.10;;;1.83;;
65373;SDS011;52070;53.760;9.678;2023-02-28T08:51:51;4.65;;;1.88;;
65373;SDS011;52070;53.760;9.678;2023-02-28T08:54:18;5.68;;;1.98;;
65373;SDS011;52070;53.760;9.678;2023-02-28T08:56:45;4.78;;;2.30;;
65373;SDS011;52070;53.760;9.678;2023-02-28T08:59:14;3.03;;;2.00;;
65373;SDS011;52070;53.760;9.678;2023-02-28T09:01:41;5.90;;;2.10;;
65373;SDS011;52070;53.760;9.678;2023-02-28T09:04:09;5.15;;;2.00;;
65373;SDS011;52070;53.760;9.678;2023-02-28T09:06:37;4.68;;;1.80;;
65373;SDS011;52070;53.760;9.678;2023-02-28T09:09:04;3.65;;;1.90;;
65373;SDS011;52070;53.760;9.678;2023-02-28T09:11:33;3.90;;;1.90;;
65373;SDS011;52070;53.760;9.678;2023-02-28T09:14:01;8.77;;;2.28;;
65373;SDS011;52070;53.760;9.678;2023-02-28T09:16:30;4.47;;;1.77;;
65373;SDS011;52070;53.760;9.678;2023-02-28T09:18:58;2.97;;;1.67;;
65373;SDS011;52070;53.760;9.678;2023-02-28T09:21:25;4.45;;;1.80;;
65373;SDS011;52070;53.760;9.678;2023-02-28T09:23:52;4.15;;;2.13;;
65373;SDS011;52070;53.760;9.678;2023-02-28T09:26:20;6.10;;;2.08;;
65373;SDS011;52070;53.760;9.678;2023-02-28T09:28:48;5.60;;;2.15;;
65373;SDS011;52070;53.760;9.678;2023-02-28T09:31:16;4.05;;;1.77;;
65373;SDS011;52070;53.760;9.678;2023-02-28T09:33:47;5.20;;;2.05;;
65373;SDS011;52070;53.760;9.678;2023-02-28T09:36:14;5.72;;;1.73;;
65373;SDS011;52070;53.760;9.678;2023-02-28T09:38:41;5.88;;;1.98;;
65373;SDS011;52070;53.760;9.678;2023-02-28T09:41:11;6.93;;;2.30;;
65373;SDS011;52070;53.760;9.678;2023-02-28T09:43:41;6.63;;;1.88;;
65373;SDS011;52070;53.760;9.678;2023-02-28T09:46:18;4.07;;;1.80;;
65373;SDS011;52070;53.760;9.678;2023-02-28T09:48:55;6.22;;;1.67;;
65373;SDS011;52070;53.760;9.678;2023-02-28T09:51:27;10.10;;;2.03;;
65373;SDS011;52070;53.760;9.678;2023-02-28T09:54:11;6.78;;;2.00;;
65373;SDS011;52070;53.760;9.678;2023-02-28T09:56:44;7.40;;;2.00;;
65373;SDS011;52070;53.760;9.678;2023-02-28T09:59:21;2.28;;;1.55;;
65373;SDS011;52070;53.760;9.678;2023-02-28T10:02:00;2.88;;;1.75;;
65373;SDS011;52070;53.760;9.678;2023-02-28T10:04:39;5.63;;;1.90;;
65373;SDS011;52070;53.760;9.678;2023-02-28T10:07:16;3.30;;;1.70;;
65373;SDS011;52070;53.760;9.678;2023-02-28T10:09:51;5.27;;;1.80;;
65373;SDS011;52070;53.760;9.678;2023-02-28T10:12:20;4.25;;;1.70;;
65373;SDS011;52070;53.760;9.678;2023-02-28T10:14:49;2.85;;;1.92;;
65373;SDS011;52070;53.760;9.678;2023-02-28T10:17:19;3.97;;;1.80;;
65373;SDS011;52070;53.760;9.678;2023-02-28T10:19:53;5.38;;;1.73;;
65373;SDS011;52070;53.760;9.678;2023-02-28T10:22:26;6.38;;;1.63;;
65373;SDS011;52070;53.760;9.678;2023-02-28T10:24:57;2.85;;;1.50;;
65373;SDS011;52070;53.760;9.678;2023-02-28T10:27:29;3.78;;;1.80;;
65373;SDS011;52070;53.760;9.678;2023-02-28T10:29:58;9.32;;;1.80;;
65373;SDS011;52070;53.760;9.678;2023-02-28T10:32:27;4.30;;;1.65;;
65373;SDS011;52070;53.760;9.678;2023-02-28T10:34:59;3.20;;;1.70;;
65373;SDS011;52070;53.760;9.678;2023-02-28T10:37:27;5.00;;;1.73;;
65373;SDS011;52070;53.760;9.678;2023-02-28T10:39:54;4.13;;;1.70;;
65373;SDS011;52070;53.760;9.678;2023-02-28T10:42:22;4.10;;;1.90;;
65373;SDS011;52070;53.760;9.678;2023-02-28T10:47:42;2.92;;;1.50;;
65373;SDS011;52070;53.760;9.678;2023-02-28T10:50:28;3.80;;;1.70;;
65373;SDS011;52070;53.760;9.678;2023-02-28T10:53:05;5.90;;;1.70;;
65373;SDS011;52070;53.760;9.678;2023-02-28T10:55:40;4.00;;;1.55;;
65373;SDS011;52070;53.760;9.678;2023-02-28T10:58:18;3.72;;;1.40;;
65373;SDS011;52070;53.760;9.678;2023-02-28T11:00:47;4.57;;;1.60;;
65373;SDS011;52070;53.760;9.678;2023-02-28T11:03:22;3.80;;;1.55;;
65373;SDS011;52070;53.760;9.678;2023-02-28T11:05:52;2.80;;;1.33;;
65373;SDS011;52070;53.760;9.678;2023-02-28T11:08:19;5.50;;;1.70;;
65373;SDS011;52070;53.760;9.678;2023-02-28T11:10:47;2.95;;;1.35;;
65373;SDS011;52070;53.760;9.678;2023-02-28T11:13:20;2.90;;;1.20;;
65373;SDS011;52070;53.760;9.678;2023-02-28T11:15:52;6.97;;;1.40;;
65373;SDS011;52070;53.760;9.678;2023-02-28T11:18:24;7.28;;;1.60;;
65373;SDS011;52070;53.760;9.678;2023-02-28T11:20:57;4.72;;;1.45;;
65373;SDS011;52070;53.760;9.678;2023-02-28T11:23:28;5.25;;;1.50;;
65373;SDS011;52070;53.760;9.678;2023-02-28T11:28:28;3.75;;;1.75;;
65373;SDS011;52070;53.760;9.678;2023-02-28T11:31:05;3.40;;;1.45;;
65373;SDS011;52070;53.760;9.678;2023-02-28T11:33:41;3.03;;;1.50;;
65373;SDS011;52070;53.760;9.678;2023-02-28T11:36:12;3.90;;;1.45;;
65373;SDS011;52070;53.760;9.678;2023-02-28T11:38:42;4.53;;;1.80;;
65373;SDS011;52070;53.760;9.678;2023-02-28T11:41:13;3.42;;;1.52;;
65373;SDS011;52070;53.760;9.678;2023-02-28T11:44:02;2.28;;;1.40;;
65373;SDS011;52070;53.760;9.678;2023-02-28T11:46:38;3.30;;;1.42;;
65373;SDS011;52070;53.760;9.678;2023-02-28T11:49:14;5.13;;;1.70;;
65373;SDS011;52070;53.760;9.678;2023-02-28T11:51:55;2.00;;;1.42;;
65373;SDS011;52070;53.760;9.678;2023-02-28T11:54:31;3.08;;;1.50;;
65373;SDS011;52070;53.760;9.678;2023-02-28T11:57:31;2.88;;;1.45;;
65373;SDS011;52070;53.760;9.678;2023-02-28T12:00:06;2.63;;;1.20;;
65373;SDS011;52070;53.760;9.678;2023-02-28T12:02:47;4.07;;;1.50;;
65373;SDS011;52070;53.760;9.678;2023-02-28T12:05:24;2.95;;;1.30;;
65373;SDS011;52070;53.760;9.678;2023-02-28T12:08:03;4.22;;;1.52;;
65373;SDS011;52070;53.760;9.678;2023-02-28T12:10:44;2.60;;;1.20;;
65373;SDS011;52070;53.760;9.678;2023-02-28T12:13:23;3.25;;;1.40;;
65373;SDS011;52070;53.760;9.678;2023-02-28T12:16:08;3.78;;;1.50;;
65373;SDS011;52070;53.760;9.678;2023-02-28T12:18:50;4.55;;;1.40;;
65373;SDS011;52070;53.760;9.678;2023-02-28T12:21:29;5.22;;;1.30;;
65373;SDS011;52070;53.760;9.678;2023-02-28T12:24:08;2.83;;;1.02;;
65373;SDS011;52070;53.760;9.678;2023-02-28T12:26:55;1.90;;;1.27;;
65373;SDS011;52070;53.760;9.678;2023-02-28T12:29:24;4.32;;;1.40;;
65373;SDS011;52070;53.760;9.678;2023-02-28T12:31:55;2.72;;;1.30;;
65373;SDS011;52070;53.760;9.678;2023-02-28T12:34:27;1.85;;;1.10;;
65373;SDS011;52070;53.760;9.678;2023-02-28T12:36:58;4.18;;;1.08;;
65373;SDS011;52070;53.760;9.678;2023-02-28T12:39:33;2.53;;;1.10;;
65373;SDS011;52070;53.760;9.678;2023-02-28T12:42:05;2.88;;;1.20;;
65373;SDS011;52070;53.760;9.678;2023-02-28T12:44:40;1.73;;;1.00;;
65373;SDS011;52070;53.760;9.678;2023-02-28T12:47:12;1.45;;;1.20;;
65373;SDS011;52070;53.760;9.678;2023-02-28T12:52:11;3.37;;;1.13;;
65373;SDS011;52070;53.760;9.678;2023-02-28T12:54:47;2.03;;;1.40;;
65373;SDS011;52070;53.760;9.678;2023-02-28T12:57:18;2.20;;;0.98;;
65373;SDS011;52070;53.760;9.678;2023-02-28T12:59:53;3.78;;;1.25;;
65373;SDS011;52070;53.760;9.678;2023-02-28T13:02:46;2.13;;;1.20;;
65373;SDS011;52070;53.760;9.678;2023-02-28T13:05:43;2.40;;;1.10;;
65373;SDS011;52070;53.760;9.678;2023-02-28T13:08:22;2.63;;;1.10;;
65373;SDS011;52070;53.760;9.678;2023-02-28T13:11:04;2.58;;;1.10;;
65373;SDS011;52070;53.760;9.678;2023-02-28T13:13:31;3.13;;;1.05;;
65373;SDS011;52070;53.760;9.678;2023-02-28T13:15:59;2.67;;;1.20;;
65373;SDS011;52070;53.760;9.678;2023-02-28T13:18:32;1.52;;;0.98;;
65373;SDS011;52070;53.760;9.678;2023-02-28T13:21:03;1.95;;;1.20;;
65373;SDS011;52070;53.760;9.678;2023-02-28T13:23:36;3.13;;;1.30;;
65373;SDS011;52070;53.760;9.678;2023-02-28T13:26:07;2.97;;;0.98;;
65373;SDS011;52070;53.760;9.678;2023-02-28T13:31:29;1.52;;;1.20;;
65373;SDS011;52070;53.760;9.678;2023-02-28T13:34:11;2.28;;;1.00;;
65373;SDS011;52070;53.760;9.678;2023-02-28T13:36:41;3.67;;;1.10;;
65373;SDS011;52070;53.760;9.678;2023-02-28T13:42:23;2.30;;;1.10;;
65373;SDS011;52070;53.760;9.678;2023-02-28T13:45:22;4.20;;;1.30;;
65373;SDS011;52070;53.760;9.678;2023-02-28T13:47:51;1.90;;;1.00;;
65373;SDS011;52070;53.760;9.678;2023-02-28T13:50:22;2.73;;;1.13;;
65373;SDS011;52070;53.760;9.678;2023-02-28T13:55:57;2.03;;;1.10;;
65373;SDS011;52070;53.760;9.678;2023-02-28T13:58:36;4.10;;;1.13;;
65373;SDS011;52070;53.760;9.678;2023-02-28T14:01:22;4.00;;;1.25;;
65373;SDS011;52070;53.760;9.678;2023-02-28T14:04:02;3.67;;;1.38;;
65373;SDS011;52070;53.760;9.678;2023-02-28T14:06:57;3.03;;;1.27;;
65373;SDS011;52070;53.760;9.678;2023-02-28T14:09:26;5.05;;;1.40;;
65373;SDS011;52070;53.760;9.678;2023-02-28T14:11:55;9.30;;;1.67;;
65373;SDS011;52070;53.760;9.678;2023-02-28T14:17:22;4.47;;;1.27;;
65373;SDS011;52070;53.760;9.678;2023-02-28T14:19:50;3.67;;;1.30;;
65373;SDS011;52070;53.760;9.678;2023-02-28T14:22:21;2.42;;;1.40;;
65373;SDS011;52070;53.760;9.678;2023-02-28T14:25:13;1.98;;;1.25;;
65373;SDS011;52070;53.760;9.678;2023-02-28T14:27:48;2.22;;;1.30;;
65373;SDS011;52070;53.760;9.678;2023-02-28T14:33:20;3.83;;;1.27;;
65373;SDS011;52070;53.760;9.678;2023-02-28T14:36:00;2.88;;;1.08;;
65373;SDS011;52070;53.760;9.678;2023-02-28T14:38:32;3.20;;;1.30;;
65373;SDS011;52070;53.760;9.678;2023-02-28T14:41:03;1.83;;;1.23;;
65373;SDS011;52070;53.760;9.678;2023-02-28T14:43:47;1.30;;;1.20;;
65373;SDS011;52070;53.760;9.678;2023-02-28T14:46:16;3.80;;;1.40;;
65373;SDS011;52070;53.760;9.678;2023-02-28T14:48:45;3.05;;;1.38;;
65373;SDS011;52070;53.760;9.678;2023-02-28T14:51:13;2.90;;;1.40;;
65373;SDS011;52070;53.760;9.678;2023-02-28T14:53:47;2.78;;;1.80;;
65373;SDS011;52070;53.760;9.678;2023-02-28T14:56:19;2.87;;;1.57;;
65373;SDS011;52070;53.760;9.678;2023-02-28T14:58:52;7.10;;;1.67;;
65373;SDS011;52070;53.760;9.678;2023-02-28T15:01:22;6.82;;;1.58;;
65373;SDS011;52070;53.760;9.678;2023-02-28T15:06:25;3.28;;;1.65;;
65373;SDS011;52070;53.760;9.678;2023-02-28T15:09:06;2.92;;;1.80;;
65373;SDS011;52070;53.760;9.678;2023-02-28T15:11:34;2.92;;;1.63;;
65373;SDS011;52070;53.760;9.678;2023-02-28T15:14:02;3.35;;;1.50;;
65373;SDS011;52070;53.760;9.678;2023-02-28T15:16:32;3.05;;;1.35;;
65373;SDS011;52070;53.760;9.678;2023-02-28T15:19:02;4.88;;;1.58;;
65373;SDS011;52070;53.760;9.678;2023-02-28T15:24:01;3.50;;;1.30;;
65373;SDS011;52070;53.760;9.678;2023-02-28T15:26:32;2.97;;;1.40;;
65373;SDS011;52070;53.760;9.678;2023-02-28T15:29:01;2.20;;;1.40;;
65373;SDS011;52070;53.760;9.678;2023-02-28T15:31:34;3.53;;;1.48;;
65373;SDS011;52070;53.760;9.678;2023-02-28T15:34:06;5.47;;;1.60;;
65373;SDS011;52070;53.760;9.678;2023-02-28T15:36:44;4.78;;;1.65;;
65373;SDS011;52070;53.760;9.678;2023-02-28T15:39:18;2.20;;;1.40;;